createdAt,value
2017-08-23T00:00:40.056Z,13.40
2017-08-23T00:03:08.316Z,13.50
2017-08-23T00:05:36.613Z,11.40
2017-08-23T00:08:04.885Z,14.06
2017-08-23T00:10:33.202Z,11.40
2017-08-23T00:13:01.484Z,14.40
2017-08-23T00:15:29.752Z,18.64
2017-08-23T00:17:58.064Z,12.78
2017-08-23T00:20:26.356Z,16.48
2017-08-23T00:22:54.650Z,11.60
2017-08-23T00:25:22.921Z,13.28
2017-08-23T00:27:51.204Z,14.50
2017-08-23T00:30:19.510Z,18.70
2017-08-23T00:32:47.810Z,13.52
2017-08-23T00:35:16.101Z,14.78
2017-08-23T00:37:44.416Z,18.04
2017-08-23T00:40:12.685Z,12.10
2017-08-23T00:42:40.991Z,11.78
2017-08-23T00:45:09.261Z,14.56
2017-08-23T00:47:37.540Z,12.76
2017-08-23T00:50:05.867Z,13.66
2017-08-23T00:52:34.136Z,11.88
2017-08-23T00:55:02.403Z,13.62
2017-08-23T00:57:30.721Z,12.84
2017-08-23T00:59:58.993Z,18.26
2017-08-23T01:02:27.270Z,15.66
2017-08-23T01:04:55.581Z,11.72
2017-08-23T01:07:23.849Z,14.74
2017-08-23T01:09:52.157Z,13.28
2017-08-23T01:12:20.416Z,15.54
2017-08-23T01:14:48.737Z,16.54
2017-08-23T01:17:16.996Z,16.42
2017-08-23T01:19:45.269Z,15.44
2017-08-23T01:22:13.688Z,18.14
2017-08-23T01:24:41.959Z,21.32
2017-08-23T01:27:10.229Z,13.20
2017-08-23T01:29:47.424Z,13.16
2017-08-23T01:32:15.689Z,14.16
2017-08-23T01:34:43.952Z,16.70
2017-08-23T01:37:12.271Z,14.00
2017-08-23T01:39:40.542Z,14.70
2017-08-23T01:42:08.806Z,18.72
2017-08-23T01:44:37.099Z,14.78
2017-08-23T01:47:05.387Z,16.58
2017-08-23T01:49:33.683Z,16.04
2017-08-23T01:52:01.956Z,14.98
2017-08-23T01:54:30.305Z,16.76
2017-08-23T01:56:58.569Z,17.74
2017-08-23T01:59:26.832Z,13.04
2017-08-23T02:01:55.122Z,14.82
2017-08-23T02:04:23.388Z,17.66
2017-08-23T02:06:51.681Z,12.68
2017-08-23T02:09:19.934Z,12.82
2017-08-23T02:11:48.190Z,12.52
2017-08-23T02:14:16.491Z,12.78
2017-08-23T02:16:44.746Z,16.90
2017-08-23T02:19:13.036Z,17.54
2017-08-23T02:21:41.296Z,14.80
2017-08-23T02:24:09.584Z,13.90
2017-08-23T02:26:37.871Z,20.12
2017-08-23T02:29:06.127Z,18.50
2017-08-23T02:31:34.419Z,13.44
2017-08-23T02:34:02.680Z,26.90
2017-08-23T02:36:30.992Z,20.92
2017-08-23T02:38:59.254Z,15.30
2017-08-23T02:41:27.515Z,15.60
2017-08-23T02:43:55.819Z,16.02
2017-08-23T02:46:24.089Z,16.26
2017-08-23T02:48:52.345Z,14.12
2017-08-23T02:51:20.645Z,16.02
2017-08-23T02:53:48.905Z,19.10
2017-08-23T02:56:17.168Z,16.94
2017-08-23T02:58:45.495Z,13.60
2017-08-23T03:01:13.983Z,18.80
2017-08-23T03:03:42.247Z,14.50
2017-08-23T03:06:10.535Z,13.74
2017-08-23T03:08:38.803Z,16.42
2017-08-23T03:11:07.115Z,16.72
2017-08-23T03:13:35.376Z,19.54
2017-08-23T03:16:03.653Z,13.96
2017-08-23T03:18:31.969Z,15.64
2017-08-23T03:21:00.244Z,16.94
2017-08-23T03:23:28.514Z,21.82
2017-08-23T03:25:56.799Z,16.80
2017-08-23T03:28:25.070Z,14.14
2017-08-23T03:30:52.594Z,19.34
2017-08-23T03:33:20.890Z,19.62
2017-08-23T03:35:49.156Z,30.16
2017-08-23T03:38:17.444Z,17.18
2017-08-23T03:40:45.702Z,16.10
2017-08-23T03:43:13.995Z,18.92
2017-08-23T03:45:42.297Z,22.08
2017-08-23T03:48:10.560Z,20.48
2017-08-23T03:50:38.818Z,20.40
2017-08-23T03:53:07.113Z,19.78
2017-08-23T03:55:35.370Z,20.84
2017-08-23T03:58:03.631Z,16.56
2017-08-23T04:00:31.958Z,23.66
2017-08-23T04:03:00.228Z,17.56
2017-08-23T04:05:28.496Z,23.22
2017-08-23T04:07:56.788Z,21.80
2017-08-23T04:10:25.057Z,21.46
2017-08-23T04:12:53.357Z,19.46
2017-08-23T04:15:21.611Z,17.74
2017-08-23T04:17:49.906Z,20.12
2017-08-23T04:20:18.170Z,19.26
2017-08-23T04:22:46.419Z,23.46
2017-08-23T04:25:14.730Z,22.40
2017-08-23T04:27:42.996Z,20.94
2017-08-23T04:30:10.488Z,19.48
2017-08-23T04:32:38.787Z,20.12
2017-08-23T04:35:07.059Z,20.54
2017-08-23T04:37:35.380Z,22.68
2017-08-23T04:40:03.634Z,20.76
2017-08-23T04:42:31.927Z,21.60
2017-08-23T04:45:00.190Z,20.34
2017-08-23T04:47:28.483Z,17.18
2017-08-23T04:49:56.752Z,17.88
2017-08-23T04:52:25.046Z,23.94
2017-08-23T04:54:53.315Z,20.72
2017-08-23T04:57:20.811Z,22.24
2017-08-23T04:59:49.107Z,19.64
2017-08-23T05:02:17.408Z,18.18
2017-08-23T05:04:45.667Z,20.90
2017-08-23T05:07:13.984Z,28.58
2017-08-23T05:09:42.242Z,19.06
2017-08-23T05:12:10.507Z,25.08
2017-08-23T05:14:38.800Z,26.92
2017-08-23T05:17:07.059Z,19.48
2017-08-23T05:19:35.356Z,21.82
2017-08-23T05:22:03.635Z,23.44
2017-08-23T05:24:31.939Z,19.14
2017-08-23T05:27:00.206Z,33.04
2017-08-23T05:29:28.469Z,24.62
2017-08-23T05:31:56.771Z,24.66
2017-08-23T05:34:25.035Z,25.40
2017-08-23T05:36:53.304Z,28.02
2017-08-23T05:39:21.600Z,28.12
2017-08-23T05:41:49.863Z,26.62
2017-08-23T05:44:18.169Z,22.48
2017-08-23T05:46:46.441Z,21.10
2017-08-23T05:49:14.735Z,28.32
2017-08-23T05:51:43.040Z,27.02
2017-08-23T05:54:11.307Z,21.44
2017-08-23T05:56:39.578Z,21.90
2017-08-23T05:59:07.888Z,22.30
2017-08-23T06:01:36.150Z,21.34
2017-08-23T06:04:04.414Z,25.60
2017-08-23T06:06:32.711Z,23.34
2017-08-23T06:09:01.022Z,26.16
2017-08-23T06:11:29.293Z,29.78
2017-08-23T06:13:57.559Z,31.42
2017-08-23T06:16:25.863Z,22.14
2017-08-23T06:18:54.132Z,24.90
2017-08-23T06:21:22.400Z,19.10
2017-08-23T06:23:50.692Z,27.26
2017-08-23T06:26:18.959Z,25.94
2017-08-23T06:28:47.247Z,21.62
2017-08-23T06:31:15.524Z,19.76
2017-08-23T06:33:43.808Z,24.84
2017-08-23T06:36:12.115Z,21.70
2017-08-23T06:38:40.437Z,23.86
2017-08-23T06:41:08.695Z,18.32
2017-08-23T06:43:36.971Z,19.76
2017-08-23T06:46:05.272Z,20.34
2017-08-23T06:48:33.545Z,16.54
2017-08-23T06:51:01.882Z,25.56
2017-08-23T06:53:30.171Z,18.92
2017-08-23T06:55:58.432Z,23.10
2017-08-23T06:58:26.730Z,21.72
2017-08-23T07:00:54.996Z,25.90
2017-08-23T07:03:23.253Z,17.68
2017-08-23T07:05:51.549Z,24.82
2017-08-23T07:08:19.865Z,16.02
2017-08-23T07:10:48.138Z,18.16
2017-08-23T07:13:16.404Z,15.94
2017-08-23T07:15:44.740Z,12.72
2017-08-23T07:18:13.009Z,15.38
2017-08-23T07:20:41.273Z,12.88
2017-08-23T07:23:09.570Z,14.66
2017-08-23T07:25:37.835Z,14.54
2017-08-23T07:28:06.132Z,10.88
2017-08-23T07:30:34.424Z,11.10
2017-08-23T07:33:02.709Z,13.38
2017-08-23T07:35:30.996Z,12.64
2017-08-23T07:37:59.267Z,13.50
2017-08-23T07:40:27.612Z,19.06
2017-08-23T07:42:55.867Z,10.12
2017-08-23T07:45:24.131Z,11.32
2017-08-23T07:47:52.417Z,11.06
2017-08-23T07:50:20.687Z,11.12
2017-08-23T07:52:48.964Z,16.44
2017-08-23T07:55:17.261Z,9.42
2017-08-23T07:57:45.518Z,11.14
2017-08-23T08:00:13.778Z,12.18
2017-08-23T08:02:42.061Z,9.18
2017-08-23T08:05:10.364Z,12.68
2017-08-23T08:07:37.849Z,13.42
2017-08-23T08:10:06.102Z,8.86
2017-08-23T08:12:34.432Z,8.46
2017-08-23T08:15:02.685Z,10.34
2017-08-23T08:17:30.948Z,8.06
2017-08-23T08:19:59.252Z,11.16
2017-08-23T08:22:27.512Z,22.86
2017-08-23T08:24:55.805Z,12.90
2017-08-23T08:27:24.084Z,11.66
2017-08-23T08:29:52.369Z,8.12
2017-08-23T08:32:20.634Z,8.58
2017-08-23T08:34:48.943Z,7.32
2017-08-23T08:37:17.200Z,6.82
2017-08-23T08:39:45.447Z,6.90
2017-08-23T08:42:13.732Z,8.66
2017-08-23T08:44:41.984Z,8.40
2017-08-23T08:47:10.275Z,7.14
2017-08-23T08:49:38.535Z,11.66
2017-08-23T08:52:06.825Z,6.84
2017-08-23T08:54:35.085Z,7.44
2017-08-23T08:57:03.371Z,9.26
2017-08-23T08:59:31.624Z,8.94
2017-08-23T09:01:59.921Z,6.70
2017-08-23T09:04:28.179Z,8.58
2017-08-23T09:06:56.437Z,9.66
2017-08-23T09:09:24.724Z,10.04
2017-08-23T09:11:52.983Z,6.82
2017-08-23T09:14:21.285Z,10.36
2017-08-23T09:16:49.548Z,8.96
2017-08-23T09:19:17.883Z,6.42
2017-08-23T09:21:46.385Z,8.22
2017-08-23T09:24:14.653Z,10.48
2017-08-23T09:26:42.948Z,17.80
2017-08-23T09:29:11.205Z,8.44
2017-08-23T09:31:39.459Z,9.62
2017-08-23T09:34:07.756Z,6.02
2017-08-23T09:36:36.004Z,8.78
2017-08-23T09:39:04.252Z,8.68
2017-08-23T09:41:32.544Z,7.90
2017-08-23T09:44:00.843Z,8.04
2017-08-23T09:46:29.111Z,14.36
2017-08-23T09:48:57.360Z,8.56
2017-08-23T09:51:25.649Z,6.54
2017-08-23T09:53:53.908Z,8.80
2017-08-23T09:56:22.196Z,8.12
2017-08-23T09:58:50.444Z,11.60
2017-08-23T10:01:18.752Z,7.70
2017-08-23T10:03:47.044Z,9.48
2017-08-23T10:06:14.563Z,6.76
2017-08-23T10:08:42.861Z,8.18
2017-08-23T10:11:11.129Z,6.76
2017-08-23T10:13:39.394Z,6.30
2017-08-23T10:16:07.683Z,5.28
2017-08-23T10:18:35.959Z,7.84
2017-08-23T10:21:04.264Z,9.14
2017-08-23T10:23:32.538Z,6.70
2017-08-23T10:26:00.800Z,8.60
2017-08-23T10:28:29.104Z,7.84
2017-08-23T10:30:57.365Z,6.56
2017-08-23T10:33:25.651Z,7.52
2017-08-23T10:35:53.914Z,10.36
2017-08-23T10:38:22.209Z,7.98
2017-08-23T10:40:50.462Z,6.00
2017-08-23T10:43:18.725Z,11.50
2017-08-23T10:45:46.280Z,8.96
2017-08-23T10:48:14.533Z,8.78
2017-08-23T10:50:42.802Z,10.14
2017-08-23T10:53:11.093Z,9.78
2017-08-23T10:55:39.384Z,7.36
2017-08-23T10:58:07.652Z,5.52
2017-08-23T11:00:35.913Z,11.04
2017-08-23T11:03:04.227Z,8.42
2017-08-23T11:05:31.750Z,7.38
2017-08-23T11:07:59.286Z,6.92
2017-08-23T11:10:27.540Z,8.56
2017-08-23T11:12:55.807Z,6.06
2017-08-23T11:15:24.099Z,7.08
2017-08-23T11:17:52.389Z,8.74
2017-08-23T11:20:20.681Z,11.68
2017-08-23T11:22:48.944Z,12.06
2017-08-23T11:25:17.287Z,11.92
2017-08-23T11:27:45.545Z,8.08
2017-08-23T11:30:13.804Z,9.02
2017-08-23T11:32:42.092Z,7.30
2017-08-23T11:35:10.349Z,6.76
2017-08-23T11:37:38.633Z,7.78
2017-08-23T11:40:06.927Z,14.84
2017-08-23T11:42:35.182Z,11.20
2017-08-23T11:45:03.492Z,9.46
2017-08-23T11:47:31.759Z,5.34
2017-08-23T11:50:00.010Z,6.08
2017-08-23T11:52:28.293Z,6.30
2017-08-23T11:54:56.541Z,6.48
2017-08-23T11:57:24.828Z,6.84
2017-08-23T11:59:53.081Z,6.24
2017-08-23T12:02:21.430Z,5.56
2017-08-23T12:04:49.666Z,7.14
2017-08-23T12:07:17.921Z,6.92
2017-08-23T12:09:46.213Z,9.78
2017-08-23T12:12:14.470Z,8.72
2017-08-23T12:14:42.764Z,7.56
2017-08-23T12:17:11.037Z,7.94
2017-08-23T12:19:39.295Z,14.44
2017-08-23T12:22:07.597Z,7.42
2017-08-23T12:24:35.857Z,9.50
2017-08-23T12:27:04.178Z,7.04
2017-08-23T12:29:32.436Z,10.28
2017-08-23T12:32:00.784Z,6.54
2017-08-23T12:34:29.044Z,7.50
2017-08-23T12:36:57.302Z,6.00
2017-08-23T12:39:25.613Z,6.88
2017-08-23T12:41:54.048Z,4.92
2017-08-23T12:44:22.309Z,6.78
2017-08-23T12:46:50.607Z,8.22
2017-08-23T12:49:18.868Z,6.84
2017-08-23T12:51:47.540Z,8.80
2017-08-23T12:54:15.849Z,7.58
2017-08-23T12:56:44.118Z,9.96
2017-08-23T12:59:12.369Z,6.12
2017-08-23T13:01:40.661Z,6.38
2017-08-23T13:04:08.934Z,7.32
2017-08-23T13:06:37.217Z,8.82
2017-08-23T13:09:05.540Z,5.12
2017-08-23T13:11:33.796Z,5.98
2017-08-23T13:14:02.056Z,6.62
2017-08-23T13:16:30.366Z,11.06
2017-08-23T13:18:58.624Z,9.16
2017-08-23T13:21:26.884Z,8.38
2017-08-23T13:23:55.175Z,6.00
2017-08-23T13:26:23.436Z,6.80
2017-08-23T13:28:51.748Z,7.36
2017-08-23T13:31:20.016Z,7.48
2017-08-23T13:33:48.282Z,5.42
2017-08-23T13:36:16.564Z,8.78
2017-08-23T13:38:44.061Z,5.64
2017-08-23T13:41:12.364Z,7.40
2017-08-23T13:43:40.610Z,6.28
2017-08-23T13:46:08.861Z,5.62
2017-08-23T13:48:37.144Z,6.02
2017-08-23T13:51:05.397Z,8.10
2017-08-23T13:53:33.756Z,6.82
2017-08-23T13:56:02.017Z,7.74
2017-08-23T13:58:30.311Z,7.76
2017-08-23T14:00:58.564Z,6.46
2017-08-23T14:03:26.819Z,7.04
2017-08-23T14:05:55.126Z,9.16
2017-08-23T14:08:23.403Z,7.36
2017-08-23T14:10:51.654Z,6.28
2017-08-23T14:13:19.943Z,5.90
2017-08-23T14:15:48.197Z,7.52
2017-08-23T14:18:16.493Z,8.62
2017-08-23T14:20:44.750Z,7.52
2017-08-23T14:23:13.020Z,13.58
2017-08-23T14:25:41.312Z,6.16
2017-08-23T14:28:09.610Z,9.16
2017-08-23T14:30:37.962Z,7.32
2017-08-23T14:33:06.228Z,6.18
2017-08-23T14:35:34.525Z,9.64
2017-08-23T14:38:02.017Z,4.90
2017-08-23T14:40:30.321Z,8.08
2017-08-23T14:42:58.576Z,5.68
2017-08-23T14:45:26.874Z,10.42
2017-08-23T14:47:55.146Z,7.26
2017-08-23T14:50:23.452Z,6.00
2017-08-23T14:52:51.712Z,6.32
2017-08-23T14:55:19.985Z,6.38
2017-08-23T14:57:48.264Z,6.88
2017-08-23T15:00:16.520Z,4.60
2017-08-23T15:02:44.805Z,5.10
2017-08-23T15:05:13.113Z,6.64
2017-08-23T15:07:41.359Z,8.60
2017-08-23T15:10:09.639Z,10.08
2017-08-23T15:12:37.929Z,7.56
2017-08-23T15:15:05.423Z,5.98
2017-08-23T15:17:33.712Z,8.06
2017-08-23T15:20:01.973Z,8.34
2017-08-23T15:22:30.351Z,11.54
2017-08-23T15:24:58.636Z,8.58
2017-08-23T15:27:26.894Z,8.98
2017-08-23T15:29:55.224Z,4.92
2017-08-23T15:32:23.501Z,7.58
2017-08-23T15:34:51.766Z,6.34
2017-08-23T15:37:20.055Z,8.28
2017-08-23T15:39:48.474Z,6.20
2017-08-23T15:42:16.739Z,8.78
2017-08-23T15:44:45.002Z,6.66
2017-08-23T15:47:13.307Z,9.16
2017-08-23T15:49:41.563Z,6.60
2017-08-23T15:52:09.838Z,6.44
2017-08-23T15:54:38.124Z,7.56
2017-08-23T15:57:05.615Z,7.44
2017-08-23T15:59:33.901Z,6.40
2017-08-23T16:02:02.159Z,8.94
2017-08-23T16:04:30.464Z,8.06
2017-08-23T16:06:58.730Z,6.42
2017-08-23T16:09:27.041Z,6.22
2017-08-23T16:11:55.359Z,6.00
2017-08-23T16:14:23.604Z,6.82
2017-08-23T16:16:51.898Z,8.04
2017-08-23T16:19:20.176Z,5.52
2017-08-23T16:21:49.282Z,7.26
2017-08-23T16:24:17.564Z,7.20
2017-08-23T16:26:45.831Z,7.16
2017-08-23T16:29:14.147Z,7.08
2017-08-23T16:31:42.422Z,12.16
2017-08-23T16:34:10.681Z,8.50
2017-08-23T16:36:38.977Z,9.36
2017-08-23T16:39:07.268Z,6.88
2017-08-23T16:41:35.553Z,6.02
2017-08-23T16:44:03.837Z,9.00
2017-08-23T16:46:32.145Z,9.62
2017-08-23T16:49:00.406Z,6.20
2017-08-23T16:51:28.681Z,6.40
2017-08-23T16:53:56.969Z,18.84
2017-08-23T16:56:25.228Z,13.62
2017-08-23T16:58:53.523Z,9.94
2017-08-23T17:01:21.780Z,6.26
2017-08-23T17:03:50.079Z,9.12
2017-08-23T17:06:18.344Z,9.72
2017-08-23T17:08:46.607Z,11.32
2017-08-23T17:11:14.932Z,7.76
2017-08-23T17:13:43.199Z,8.24
2017-08-23T17:16:11.488Z,6.30
2017-08-23T17:18:39.031Z,8.06
2017-08-23T17:21:07.284Z,9.18
2017-08-23T17:23:35.540Z,6.70
2017-08-23T17:26:03.831Z,7.84
2017-08-23T17:28:32.093Z,5.64
2017-08-23T17:31:00.359Z,12.08
2017-08-23T17:33:28.668Z,21.62
2017-08-23T17:35:56.171Z,7.32
2017-08-23T17:38:24.453Z,7.04
2017-08-23T17:40:52.748Z,6.10
2017-08-23T17:43:21.027Z,6.42
2017-08-23T17:45:49.345Z,9.62
2017-08-23T17:48:17.610Z,6.00
2017-08-23T17:50:45.880Z,9.90
2017-08-23T17:53:14.183Z,7.68
2017-08-23T17:55:42.449Z,8.28
2017-08-23T17:58:10.737Z,7.04
2017-08-23T18:00:39.006Z,6.20
2017-08-23T18:03:07.332Z,8.78
2017-08-23T18:05:35.706Z,7.04
2017-08-23T18:08:04.049Z,6.84
2017-08-23T18:10:32.347Z,10.98
2017-08-23T18:13:00.647Z,10.90
2017-08-23T18:15:28.915Z,5.12
2017-08-23T18:17:57.178Z,6.30
2017-08-23T18:20:25.487Z,5.88
2017-08-23T18:22:53.734Z,9.54
2017-08-23T18:25:21.989Z,8.88
2017-08-23T18:27:50.275Z,9.84
2017-08-23T18:30:18.525Z,10.12
2017-08-23T18:32:46.820Z,8.16
2017-08-23T18:35:15.084Z,7.78
2017-08-23T18:37:43.359Z,6.38
2017-08-23T18:40:11.653Z,9.54
2017-08-23T18:42:39.917Z,8.80
2017-08-23T18:45:07.440Z,10.02
2017-08-23T18:47:35.693Z,6.02
2017-08-23T18:50:03.980Z,6.26
2017-08-23T18:52:32.265Z,5.72
2017-08-23T18:55:00.584Z,7.74
2017-08-23T18:57:28.867Z,5.96
2017-08-23T18:59:57.129Z,6.64
2017-08-23T19:02:25.422Z,8.80
2017-08-23T19:04:53.684Z,7.96
2017-08-23T19:07:21.972Z,7.42
2017-08-23T19:09:50.236Z,6.28
2017-08-23T19:12:18.546Z,7.52
2017-08-23T19:14:46.818Z,10.34
2017-08-23T19:17:15.089Z,7.12
2017-08-23T19:19:43.395Z,9.54
2017-08-23T19:22:11.659Z,11.58
2017-08-23T19:24:39.915Z,8.74
2017-08-23T19:27:07.457Z,6.72
2017-08-23T19:29:35.716Z,8.54
2017-08-23T19:32:03.973Z,7.18
2017-08-23T19:34:32.268Z,8.92
2017-08-23T19:37:00.528Z,6.60
2017-08-23T19:39:28.820Z,9.60
2017-08-23T19:41:57.078Z,9.46
2017-08-23T19:44:25.344Z,7.92
2017-08-23T19:46:53.624Z,7.58
2017-08-23T19:49:21.884Z,8.48
2017-08-23T19:51:50.180Z,8.48
2017-08-23T19:54:18.433Z,6.78
2017-08-23T19:56:45.924Z,9.50
2017-08-23T19:59:14.203Z,8.66
2017-08-23T20:01:41.687Z,8.96
2017-08-23T20:04:09.980Z,5.80
2017-08-23T20:06:38.245Z,8.56
2017-08-23T20:09:06.512Z,8.42
2017-08-23T20:11:34.043Z,9.48
2017-08-23T20:14:02.292Z,9.56
2017-08-23T20:16:30.542Z,8.56
2017-08-23T20:18:58.837Z,8.42
2017-08-23T20:21:27.088Z,11.42
2017-08-23T20:23:55.385Z,9.72
2017-08-23T20:26:23.645Z,10.86
2017-08-23T20:28:51.937Z,6.74
2017-08-23T20:31:20.220Z,10.02
2017-08-23T20:33:48.476Z,9.96
2017-08-23T20:36:16.802Z,8.32
2017-08-23T20:38:45.061Z,7.54
2017-08-23T20:41:13.324Z,8.60
2017-08-23T20:43:41.645Z,7.04
2017-08-23T20:46:09.911Z,6.82
2017-08-23T20:48:38.179Z,9.26
2017-08-23T20:51:06.489Z,5.42
2017-08-23T20:53:34.765Z,7.14
2017-08-23T20:56:03.028Z,6.28
2017-08-23T20:58:31.353Z,8.34
2017-08-23T21:00:59.607Z,19.92
2017-08-23T21:03:27.868Z,5.94
2017-08-23T21:05:57.105Z,6.78
2017-08-23T21:08:25.391Z,8.80
2017-08-23T21:10:53.667Z,7.46
2017-08-23T21:13:21.970Z,7.54
2017-08-23T21:15:50.250Z,8.70
2017-08-23T21:18:18.549Z,9.54
2017-08-23T21:20:46.826Z,11.46
2017-08-23T21:23:15.122Z,9.48
2017-08-23T21:25:42.652Z,10.72
2017-08-23T21:28:10.919Z,8.74
2017-08-23T21:30:38.420Z,9.64
2017-08-23T21:33:06.732Z,10.62
2017-08-23T21:35:34.990Z,7.48
2017-08-23T21:38:03.250Z,10.14
2017-08-23T21:40:31.552Z,7.20
2017-08-23T21:42:59.818Z,8.18
2017-08-23T21:45:28.133Z,10.88
2017-08-23T21:47:56.379Z,9.40
2017-08-23T21:50:24.646Z,8.50
2017-08-23T21:52:52.967Z,10.60
2017-08-23T21:55:21.232Z,7.52
2017-08-23T21:57:49.527Z,8.28
2017-08-23T22:00:17.827Z,8.96
2017-08-23T22:02:46.108Z,11.02
2017-08-23T22:05:14.415Z,11.12
2017-08-23T22:07:42.691Z,13.96
2017-08-23T22:10:10.964Z,8.76
2017-08-23T22:12:39.274Z,15.80
2017-08-23T22:15:07.536Z,9.88
2017-08-23T22:17:35.797Z,13.14
2017-08-23T22:20:04.100Z,12.94
2017-08-23T22:22:33.348Z,14.76
2017-08-23T22:25:01.655Z,18.48
2017-08-23T22:27:29.914Z,15.94
2017-08-23T22:29:58.183Z,16.70
2017-08-23T22:32:26.482Z,23.56
2017-08-23T22:34:54.749Z,25.98
2017-08-23T22:37:23.060Z,23.42
2017-08-23T22:39:51.328Z,18.56
2017-08-23T22:42:19.644Z,29.44
2017-08-23T22:44:47.909Z,26.34
2017-08-23T22:47:16.170Z,27.74
2017-08-23T22:49:44.471Z,33.98
2017-08-23T22:52:12.776Z,34.22
2017-08-23T22:54:40.272Z,35.54
2017-08-23T22:57:08.539Z,36.66
2017-08-23T22:59:36.842Z,34.62
2017-08-23T23:02:05.113Z,40.00
2017-08-23T23:04:33.420Z,34.70
2017-08-23T23:07:01.724Z,36.72
2017-08-23T23:09:30.024Z,39.68
2017-08-23T23:11:58.331Z,38.30
2017-08-23T23:14:26.595Z,42.08
2017-08-23T23:16:54.861Z,39.66
2017-08-23T23:19:23.151Z,40.10
2017-08-23T23:21:51.457Z,37.22
2017-08-23T23:24:19.726Z,38.44
2017-08-23T23:26:47.987Z,32.04
2017-08-23T23:29:16.291Z,35.50
2017-08-23T23:31:44.561Z,32.02
2017-08-23T23:34:12.869Z,35.22
2017-08-23T23:36:41.180Z,37.44
2017-08-23T23:39:09.450Z,37.70
2017-08-23T23:41:37.721Z,46.16
2017-08-23T23:44:06.040Z,34.16
2017-08-23T23:46:34.304Z,29.18
2017-08-23T23:49:02.570Z,34.30
2017-08-23T23:51:30.872Z,32.90
2017-08-23T23:53:59.151Z,26.22
2017-08-23T23:56:27.415Z,32.20
2017-08-23T23:58:55.715Z,31.54
